createdAt,value
2018-07-09T00:00:22.388Z,99015.45
2018-07-09T00:02:49.686Z,99019.26
2018-07-09T00:05:16.982Z,99011.00
2018-07-09T00:07:44.281Z,99016.30
2018-07-09T00:10:12.674Z,99014.05
2018-07-09T00:12:39.930Z,99002.97
2018-07-09T00:15:09.958Z,99005.20
2018-07-09T00:20:28.078Z,99006.09
2018-07-09T00:22:55.359Z,99004.90
2018-07-09T00:25:22.639Z,99001.14
2018-07-09T00:27:49.943Z,99003.22
2018-07-09T00:30:17.246Z,99006.89
2018-07-09T00:32:44.554Z,99000.54
2018-07-09T00:35:11.803Z,98998.44
2018-07-09T00:37:39.040Z,98991.81
2018-07-09T00:40:06.309Z,99002.33
2018-07-09T00:42:33.806Z,98996.31
2018-07-09T00:45:01.828Z,99001.84
2018-07-09T00:47:29.862Z,99003.22
2018-07-09T00:49:57.126Z,99001.42
2018-07-09T00:52:24.379Z,99008.71
2018-07-09T00:54:51.660Z,99001.71
2018-07-09T00:57:18.930Z,98993.77
2018-07-09T00:59:46.245Z,98991.89
2018-07-09T01:02:13.497Z,98992.58
2018-07-09T01:04:40.757Z,98990.91
2018-07-09T01:07:08.039Z,98991.49
2018-07-09T01:09:35.317Z,98989.80
2018-07-09T01:12:10.430Z,98990.38
2018-07-09T01:14:38.376Z,98998.90
2018-07-09T01:17:05.697Z,98994.95
2018-07-09T01:19:33.180Z,98998.03
2018-07-09T01:22:00.740Z,99000.22
2018-07-09T01:24:28.032Z,98990.19
2018-07-09T01:26:55.340Z,98990.66
2018-07-09T01:29:22.640Z,98993.01
2018-07-09T01:31:49.945Z,98991.07
2018-07-09T01:34:24.028Z,98993.17
2018-07-09T01:36:51.291Z,98993.28
2018-07-09T01:39:18.590Z,98988.39
2018-07-09T01:41:45.895Z,98990.70
2018-07-09T01:44:13.166Z,98989.91
2018-07-09T01:46:40.419Z,98990.88
2018-07-09T01:49:07.800Z,98992.55
2018-07-09T01:51:35.378Z,98992.02
2018-07-09T01:54:02.660Z,98985.86
2018-07-09T01:56:29.995Z,98985.75
2018-07-09T01:58:57.285Z,98985.30
2018-07-09T02:01:24.572Z,98988.58
2018-07-09T02:03:51.805Z,98990.42
2018-07-09T02:06:19.069Z,98990.98
2018-07-09T02:08:46.335Z,98986.23
2018-07-09T02:11:13.658Z,98984.20
2018-07-09T02:13:41.031Z,98979.42
2018-07-09T02:16:08.281Z,98975.40
2018-07-09T02:18:35.558Z,98985.06
2018-07-09T02:21:02.937Z,98983.03
2018-07-09T02:23:30.181Z,98973.38
2018-07-09T02:25:57.447Z,98977.06
2018-07-09T02:28:24.720Z,98979.83
2018-07-09T02:30:51.999Z,98977.41
2018-07-09T02:33:19.428Z,98980.05
2018-07-09T02:35:46.690Z,98978.80
2018-07-09T02:38:14.009Z,98983.61
2018-07-09T02:40:41.305Z,98981.49
2018-07-09T02:43:08.567Z,98979.05
2018-07-09T02:45:36.160Z,98981.92
2018-07-09T02:48:03.470Z,98980.03
2018-07-09T02:50:30.790Z,98979.45
2018-07-09T02:52:58.162Z,98971.59
2018-07-09T02:55:25.539Z,98979.52
2018-07-09T02:57:52.869Z,98973.38
2018-07-09T03:00:20.214Z,98979.17
2018-07-09T03:02:47.756Z,98984.41
2018-07-09T03:05:15.130Z,98982.22
2018-07-09T03:07:42.461Z,98990.05
2018-07-09T03:10:09.882Z,98988.88
2018-07-09T03:12:37.215Z,98991.52
2018-07-09T03:15:04.652Z,99001.92
2018-07-09T03:17:32.177Z,98999.68
2018-07-09T03:20:00.899Z,99002.17
2018-07-09T03:22:29.610Z,98995.09
2018-07-09T03:24:57.979Z,98998.78
2018-07-09T03:27:25.462Z,99003.84
2018-07-09T03:29:53.428Z,99001.91
2018-07-09T03:32:20.778Z,99011.31
2018-07-09T03:34:48.106Z,99005.69
2018-07-09T03:37:15.588Z,99006.64
2018-07-09T03:39:42.949Z,99010.30
2018-07-09T03:42:10.314Z,99006.32
2018-07-09T03:44:37.957Z,99007.78
2018-07-09T03:47:06.611Z,99006.55
2018-07-09T03:49:33.967Z,99007.62
2018-07-09T03:52:01.429Z,99006.96
2018-07-09T03:54:28.778Z,99012.75
2018-07-09T03:56:56.150Z,99011.10
2018-07-09T03:59:23.676Z,99007.84
2018-07-09T04:01:51.095Z,99005.54
2018-07-09T04:04:18.965Z,98999.63
2018-07-09T04:06:46.359Z,99008.33
2018-07-09T04:09:13.790Z,99004.05
2018-07-09T04:11:41.152Z,99012.66
2018-07-09T04:14:09.127Z,99015.43
2018-07-09T04:16:36.435Z,99009.92
2018-07-09T04:19:05.298Z,99008.47
2018-07-09T04:21:32.872Z,99006.22
2018-07-09T04:24:00.143Z,99013.83
2018-07-09T04:26:27.578Z,99012.62
2018-07-09T04:28:54.897Z,99005.30
2018-07-09T04:31:22.440Z,99013.56
2018-07-09T04:33:50.774Z,99009.94
2018-07-09T04:36:18.091Z,99008.91
2018-07-09T04:38:46.037Z,99016.98
2018-07-09T04:41:13.265Z,99009.71
2018-07-09T04:43:40.610Z,99014.19
2018-07-09T04:46:07.983Z,99013.58
2018-07-09T04:48:35.386Z,99020.02
2018-07-09T04:51:02.879Z,99015.25
2018-07-09T04:53:30.279Z,99013.95
2018-07-09T04:55:58.272Z,99020.16
2018-07-09T04:58:25.607Z,99015.88
2018-07-09T05:00:53.013Z,99012.23
2018-07-09T05:03:20.354Z,99012.91
2018-07-09T05:05:47.715Z,99011.09
2018-07-09T05:08:15.064Z,99008.31
2018-07-09T05:10:42.424Z,99010.48
2018-07-09T05:13:09.936Z,99005.57
2018-07-09T05:15:37.297Z,99003.84
2018-07-09T05:18:06.327Z,99002.80
2018-07-09T05:20:33.680Z,98998.28
2018-07-09T05:23:01.039Z,98995.23
2018-07-09T05:25:28.446Z,98992.19
2018-07-09T05:27:55.828Z,98988.05
2018-07-09T05:30:23.190Z,98983.47
2018-07-09T05:32:50.548Z,98979.41
2018-07-09T05:35:17.938Z,98976.19
2018-07-09T05:37:46.235Z,98983.39
2018-07-09T05:40:13.689Z,98986.03
2018-07-09T05:42:41.229Z,98989.73
2018-07-09T05:45:08.678Z,98990.58
2018-07-09T05:47:36.387Z,98984.86
2018-07-09T05:50:06.705Z,98986.20
2018-07-09T05:52:34.063Z,98984.86
2018-07-09T05:55:01.389Z,98982.52
2018-07-09T05:57:28.796Z,98981.90
2018-07-09T05:59:56.134Z,98976.48
2018-07-09T06:02:23.520Z,98986.12
2018-07-09T06:04:50.908Z,98978.61
2018-07-09T06:07:18.487Z,98979.52
2018-07-09T06:09:45.950Z,98982.58
2018-07-09T06:12:14.271Z,98978.73
2018-07-09T06:14:41.685Z,98978.69
2018-07-09T06:17:09.031Z,98977.05
2018-07-09T06:19:36.452Z,98971.17
2018-07-09T06:22:03.889Z,98971.60
2018-07-09T06:24:31.245Z,98971.19
2018-07-09T06:26:58.577Z,98967.89
2018-07-09T06:29:26.006Z,98974.00
2018-07-09T06:31:53.439Z,98976.65
2018-07-09T06:34:21.607Z,98975.34
2018-07-09T06:36:49.019Z,98979.93
2018-07-09T06:39:16.953Z,98978.71
2018-07-09T06:41:44.386Z,98983.84
2018-07-09T06:44:11.777Z,98985.34
2018-07-09T06:46:40.213Z,98981.48
2018-07-09T06:49:08.078Z,98980.50
2018-07-09T06:51:35.475Z,98969.98
2018-07-09T06:54:02.898Z,98971.06
2018-07-09T06:56:30.328Z,98971.73
2018-07-09T06:58:58.353Z,98966.54
2018-07-09T07:01:26.431Z,98967.22
2018-07-09T07:03:53.837Z,98966.64
2018-07-09T07:06:21.192Z,98971.06
2018-07-09T07:08:48.645Z,98967.86
2018-07-09T07:11:16.041Z,98970.63
2018-07-09T07:13:43.399Z,98971.96
2018-07-09T07:16:10.850Z,98969.34
2018-07-09T07:18:38.217Z,98977.14
2018-07-09T07:21:05.831Z,98973.60
2018-07-09T07:23:33.135Z,98974.66
2018-07-09T07:26:00.422Z,98971.41
2018-07-09T07:28:27.722Z,98973.22
2018-07-09T07:30:55.110Z,98968.75
2018-07-09T07:33:22.873Z,98960.59
2018-07-09T07:35:50.239Z,98962.71
2018-07-09T07:38:17.557Z,98962.06
2018-07-09T07:40:45.627Z,98951.22
2018-07-09T07:43:13.409Z,98956.66
2018-07-09T07:45:40.770Z,98949.59
2018-07-09T07:48:08.075Z,98958.13
2018-07-09T07:50:36.260Z,98956.50
2018-07-09T07:53:03.611Z,98952.12
2018-07-09T07:55:30.999Z,98955.84
2018-07-09T07:57:58.298Z,98961.27
2018-07-09T08:00:25.642Z,98963.63
2018-07-09T08:02:53.023Z,98965.45
2018-07-09T08:05:20.358Z,98958.21
2018-07-09T08:07:47.674Z,98953.50
2018-07-09T08:10:15.068Z,98951.30
2018-07-09T08:15:09.851Z,98950.01
2018-07-09T08:17:37.275Z,98957.99
2018-07-09T08:20:05.529Z,98949.25
2018-07-09T08:22:32.955Z,98948.97
2018-07-09T08:25:00.441Z,98951.62
2018-07-09T08:27:27.949Z,98948.13
2018-07-09T08:29:55.354Z,98950.06
2018-07-09T08:32:22.849Z,98945.55
2018-07-09T08:34:50.315Z,98940.94
2018-07-09T08:37:17.705Z,98947.36
2018-07-09T08:39:45.240Z,98953.38
2018-07-09T08:42:12.619Z,98939.57
2018-07-09T08:44:40.466Z,98943.59
2018-07-09T08:47:07.863Z,98934.92
2018-07-09T08:49:35.335Z,98940.69
2018-07-09T08:52:02.848Z,98932.16
2018-07-09T08:54:30.150Z,98938.00
2018-07-09T08:57:10.581Z,98932.59
2018-07-09T08:59:37.954Z,98940.95
2018-07-09T09:02:05.924Z,98932.61
2018-07-09T09:04:33.276Z,98939.39
2018-07-09T09:07:00.708Z,98936.84
2018-07-09T09:09:28.114Z,98939.21
2018-07-09T09:11:55.492Z,98936.50
2018-07-09T09:14:23.091Z,98943.16
2018-07-09T09:16:50.485Z,98936.63
2018-07-09T09:19:17.814Z,98929.02
2018-07-09T09:21:45.963Z,98931.52
2018-07-09T09:24:13.329Z,98934.70
2018-07-09T09:26:40.921Z,98929.09
2018-07-09T09:29:08.266Z,98925.61
2018-07-09T09:31:35.739Z,98929.16
2018-07-09T09:34:03.122Z,98911.98
2018-07-09T09:36:30.490Z,98922.07
2018-07-09T09:38:57.939Z,98921.45
2018-07-09T09:41:25.747Z,98915.70
2018-07-09T09:43:53.178Z,98911.14
2018-07-09T09:46:20.571Z,98907.91
2018-07-09T09:48:48.645Z,98915.55
2018-07-09T09:51:16.010Z,98913.47
2018-07-09T09:53:43.402Z,98909.85
2018-07-09T09:56:10.766Z,98895.91
2018-07-09T09:58:38.279Z,98894.38
2018-07-09T10:01:06.043Z,98894.80
2018-07-09T10:03:33.482Z,98881.98
2018-07-09T10:06:01.860Z,98880.59
2018-07-09T10:08:29.295Z,98889.88
2018-07-09T10:10:56.705Z,98875.73
2018-07-09T10:13:24.069Z,98876.04
2018-07-09T10:15:51.490Z,98875.40
2018-07-09T10:18:18.996Z,98875.30
2018-07-09T10:20:46.334Z,98877.79
2018-07-09T10:23:13.869Z,98865.11
2018-07-09T10:25:41.095Z,98873.33
2018-07-09T10:28:08.458Z,98865.02
2018-07-09T10:30:35.768Z,98868.12
2018-07-09T10:33:04.142Z,98864.83
2018-07-09T10:35:32.180Z,98865.41
2018-07-09T10:37:59.552Z,98865.17
2018-07-09T10:40:26.884Z,98869.98
2018-07-09T10:42:54.243Z,98864.19
2018-07-09T10:45:22.341Z,98863.34
2018-07-09T10:47:49.665Z,98865.16
2018-07-09T10:50:17.009Z,98859.44
2018-07-09T10:52:44.348Z,98862.78
2018-07-09T10:55:11.717Z,98859.55
2018-07-09T10:57:39.103Z,98853.56
2018-07-09T11:00:06.558Z,98858.97
2018-07-09T11:02:33.975Z,98846.30
2018-07-09T11:05:01.324Z,98855.34
2018-07-09T11:07:28.672Z,98851.87
2018-07-09T11:09:56.110Z,98851.87
2018-07-09T11:12:23.651Z,98850.84
2018-07-09T11:14:51.046Z,98837.61
2018-07-09T11:17:18.316Z,98840.89
2018-07-09T11:19:45.649Z,98843.75
2018-07-09T11:22:13.029Z,98832.41
2018-07-09T11:24:40.401Z,98836.52
2018-07-09T11:27:07.702Z,98832.77
2018-07-09T11:29:35.147Z,98824.30
2018-07-09T11:32:02.555Z,98823.89
2018-07-09T11:34:29.933Z,98813.43
2018-07-09T11:36:57.251Z,98815.95
2018-07-09T11:39:24.713Z,98811.79
2018-07-09T11:41:52.086Z,98832.27
2018-07-09T11:44:19.438Z,98827.78
2018-07-09T11:46:46.801Z,98817.59
2018-07-09T11:49:14.142Z,98809.97
2018-07-09T11:51:42.395Z,98809.88
2018-07-09T11:54:09.730Z,98817.96
2018-07-09T11:56:37.045Z,98803.93
2018-07-09T11:59:04.954Z,98795.53
2018-07-09T12:01:32.285Z,98814.30
2018-07-09T12:03:59.646Z,98805.61
2018-07-09T12:06:27.017Z,98801.52
2018-07-09T12:08:54.382Z,98800.28
2018-07-09T12:11:22.463Z,98798.30
2018-07-09T12:13:49.844Z,98791.81
2018-07-09T12:16:17.915Z,98798.06
2018-07-09T12:18:45.309Z,98789.28
2018-07-09T12:21:13.699Z,98781.24
2018-07-09T12:23:47.751Z,98789.76
2018-07-09T12:26:15.111Z,98789.95
2018-07-09T12:28:42.655Z,98782.66
2018-07-09T12:31:09.974Z,98783.61
2018-07-09T12:33:37.321Z,98777.00
2018-07-09T12:36:06.008Z,98780.36
2018-07-09T12:38:33.447Z,98767.19
2018-07-09T12:41:00.883Z,98764.44
2018-07-09T12:43:28.325Z,98770.97
2018-07-09T12:45:56.358Z,98763.70
2018-07-09T12:48:23.727Z,98759.86
2018-07-09T12:50:51.110Z,98767.00
2018-07-09T12:53:18.451Z,98767.19
2018-07-09T12:55:45.902Z,98757.85
2018-07-09T12:58:13.345Z,98763.87
2018-07-09T13:00:40.817Z,98751.14
2018-07-09T13:03:08.384Z,98747.42
2018-07-09T13:05:35.882Z,98745.20
2018-07-09T13:08:03.254Z,98754.27
2018-07-09T13:10:30.858Z,98751.14
2018-07-09T13:12:58.255Z,98750.14
2018-07-09T13:15:25.587Z,98747.77
2018-07-09T13:17:53.044Z,98741.36
2018-07-09T13:20:20.550Z,98731.30
2018-07-09T13:22:48.896Z,98740.97
2018-07-09T13:25:16.253Z,98741.88
2018-07-09T13:27:43.644Z,98747.16
2018-07-09T13:30:10.967Z,98743.13
2018-07-09T13:32:38.903Z,98742.66
2018-07-09T13:35:06.827Z,98742.84
2018-07-09T13:37:34.144Z,98748.27
2018-07-09T13:40:01.480Z,98747.30
2018-07-09T13:42:28.859Z,98741.19
2018-07-09T13:44:57.942Z,98729.81
2018-07-09T13:47:25.594Z,98733.33
2018-07-09T13:49:53.401Z,98735.00
2018-07-09T13:52:21.019Z,98730.64
2018-07-09T13:54:48.397Z,98722.63
2018-07-09T13:57:15.759Z,98724.11
2018-07-09T13:59:43.113Z,98717.41
2018-07-09T14:02:10.540Z,98717.11
2018-07-09T14:04:38.704Z,98717.67
2018-07-09T14:07:08.279Z,98709.68
2018-07-09T14:09:35.635Z,98711.46
2018-07-09T14:12:03.011Z,98709.42
2018-07-09T14:14:30.455Z,98703.95
2018-07-09T14:16:57.842Z,98709.47
2018-07-09T14:20:35.515Z,98710.41
2018-07-09T14:23:03.445Z,98713.27
2018-07-09T14:25:31.424Z,98707.66
2018-07-09T14:27:58.746Z,98701.38
2018-07-09T14:30:26.134Z,98698.99
2018-07-09T14:32:53.479Z,98695.61
2018-07-09T14:35:20.836Z,98696.97
2018-07-09T14:37:48.298Z,98691.81
2018-07-09T14:40:15.606Z,98694.12
2018-07-09T14:42:43.090Z,98689.37
2018-07-09T14:45:11.040Z,98693.17
2018-07-09T14:47:39.097Z,98686.20
2018-07-09T14:50:08.618Z,98695.89
2018-07-09T14:52:36.031Z,98692.21
2018-07-09T14:55:03.521Z,98694.62
2018-07-09T14:57:30.875Z,98699.03
2018-07-09T14:59:58.282Z,98701.70
2018-07-09T15:02:25.672Z,98694.78
2018-07-09T15:04:53.193Z,98704.96
2018-07-09T15:07:20.538Z,98707.65
2018-07-09T15:09:47.938Z,98702.16
2018-07-09T15:12:15.299Z,98698.10
2018-07-09T15:14:42.634Z,98707.44
2018-07-09T15:17:10.357Z,98704.52
2018-07-09T15:19:37.779Z,98697.17
2018-07-09T15:22:06.374Z,98694.84
2018-07-09T15:24:33.797Z,98694.97
2018-07-09T15:27:02.000Z,98707.78
2018-07-09T15:29:29.342Z,98708.17
2018-07-09T15:32:08.708Z,98701.44
2018-07-09T15:34:36.417Z,98696.67
2018-07-09T15:37:04.380Z,98693.16
2018-07-09T15:39:31.758Z,98697.50
2018-07-09T15:41:59.206Z,98690.95
2018-07-09T15:44:26.640Z,98697.34
2018-07-09T15:46:54.097Z,98705.52
2018-07-09T15:49:21.545Z,98705.67
2018-07-09T15:51:49.646Z,98698.67
2018-07-09T15:54:17.034Z,98695.23
2018-07-09T15:56:44.436Z,98703.23
2018-07-09T15:59:11.812Z,98701.00
2018-07-09T16:01:39.163Z,98703.16
2018-07-09T16:04:06.976Z,98706.72
2018-07-09T16:06:34.357Z,98698.03
2018-07-09T16:09:01.814Z,98708.66
2018-07-09T16:11:29.207Z,98704.63
2018-07-09T16:13:57.177Z,98701.90
2018-07-09T16:16:25.803Z,98692.13
2018-07-09T16:18:53.186Z,98697.59
2018-07-09T16:21:20.799Z,98701.58
2018-07-09T16:23:48.174Z,98694.01
2018-07-09T16:26:15.533Z,98695.64
2018-07-09T16:28:42.969Z,98700.84
2018-07-09T16:31:10.284Z,98691.56
2018-07-09T16:33:37.639Z,98690.27
2018-07-09T16:36:05.128Z,98684.13
2018-07-09T16:38:32.496Z,98673.77
2018-07-09T16:41:00.254Z,98669.84
2018-07-09T16:43:28.653Z,98665.02
2018-07-09T16:45:57.146Z,98663.42
2018-07-09T16:48:25.285Z,98656.88
2018-07-09T16:50:53.309Z,98661.89
2018-07-09T16:53:21.113Z,98661.88
2018-07-09T16:55:49.302Z,98662.53
2018-07-09T16:58:17.508Z,98665.09
2018-07-09T17:00:45.578Z,98656.35
2018-07-09T17:03:14.212Z,98656.42
2018-07-09T17:05:42.609Z,98657.03
2018-07-09T17:08:11.891Z,98652.89
2018-07-09T17:10:39.976Z,98657.64
2018-07-09T17:13:07.801Z,98659.25
2018-07-09T17:15:36.126Z,98659.80
2018-07-09T17:18:05.504Z,98658.27
2018-07-09T17:20:33.489Z,98659.45
2018-07-09T17:23:02.104Z,98660.67
2018-07-09T17:25:30.372Z,98661.39
2018-07-09T17:27:59.898Z,98662.07
2018-07-09T17:30:28.861Z,98661.41
2018-07-09T17:32:57.040Z,98664.33
2018-07-09T17:35:25.279Z,98663.46
2018-07-09T17:37:54.146Z,98665.03
2018-07-09T17:40:22.330Z,98670.84
2018-07-09T17:42:50.192Z,98664.91
2018-07-09T17:45:17.677Z,98661.20
2018-07-09T17:47:46.083Z,98660.89
2018-07-09T17:50:14.121Z,98661.31
2018-07-09T17:52:42.754Z,98674.28
2018-07-09T17:55:10.856Z,98673.66
2018-07-09T17:57:38.454Z,98674.89
2018-07-09T18:00:07.071Z,98668.98
2018-07-09T18:02:35.209Z,98671.50
2018-07-09T18:05:04.559Z,98675.30
2018-07-09T18:07:34.178Z,98666.55
2018-07-09T18:10:02.496Z,98653.17
2018-07-09T18:12:32.145Z,98659.11
2018-07-09T18:15:00.708Z,98658.78
2018-07-09T18:17:31.663Z,98660.61
2018-07-09T18:20:00.414Z,98656.70
2018-07-09T18:22:36.079Z,98662.53
2018-07-09T18:25:13.792Z,98662.13
2018-07-09T18:27:49.571Z,98647.81
2018-07-09T18:30:23.814Z,98652.31
2018-07-09T18:32:52.596Z,98652.23
2018-07-09T18:35:21.824Z,98644.98
2018-07-09T18:37:51.895Z,98643.27
2018-07-09T18:40:22.233Z,98640.19
2018-07-09T18:42:54.807Z,98642.02
2018-07-09T18:45:24.054Z,98648.62
2018-07-09T18:47:54.537Z,98648.06
2018-07-09T18:50:22.139Z,98639.37
2018-07-09T18:52:51.172Z,98638.23
2018-07-09T18:55:19.342Z,98640.38
2018-07-09T18:57:47.922Z,98634.09
2018-07-09T19:00:15.508Z,98643.66
2018-07-09T19:02:44.541Z,98640.03
2018-07-09T19:05:13.898Z,98633.83
2018-07-09T19:07:43.002Z,98631.48
2018-07-09T19:10:12.152Z,98627.63
2018-07-09T19:12:42.347Z,98630.70
2018-07-09T19:15:10.111Z,98628.95
2018-07-09T19:18:04.572Z,98629.37
2018-07-09T19:20:43.490Z,98633.93
2018-07-09T19:23:10.726Z,98640.14
2018-07-09T19:25:37.791Z,98627.47
2018-07-09T19:28:06.222Z,98630.61
2018-07-09T19:30:32.965Z,98635.70
2018-07-09T19:33:00.091Z,98633.41
2018-07-09T19:35:27.900Z,98635.23
2018-07-09T19:37:54.776Z,98634.16
2018-07-09T19:40:21.204Z,98624.16
2018-07-09T19:42:47.972Z,98637.52
2018-07-09T19:45:21.406Z,98633.81
2018-07-09T19:47:47.923Z,98625.70
2018-07-09T19:50:14.645Z,98623.20
2018-07-09T19:52:40.945Z,98630.28
2018-07-09T19:55:11.717Z,98624.64
2018-07-09T19:57:38.742Z,98632.17
2018-07-09T20:00:05.145Z,98635.23
2018-07-09T20:02:31.584Z,98631.52
2018-07-09T20:04:59.078Z,98638.95
2018-07-09T20:07:25.495Z,98637.23
2018-07-09T20:09:57.395Z,98640.09
2018-07-09T20:12:29.335Z,98633.59
2018-07-09T20:15:01.652Z,98630.34
2018-07-09T20:17:29.484Z,98625.57
2018-07-09T20:19:55.937Z,98631.19
2018-07-09T20:22:22.329Z,98627.77
2018-07-09T20:24:48.630Z,98628.46
2018-07-09T20:27:14.872Z,98625.59
2018-07-09T20:29:41.118Z,98620.45
2018-07-09T20:32:07.518Z,98627.50
2018-07-09T20:34:33.751Z,98622.74
2018-07-09T20:36:59.994Z,98627.23
2018-07-09T20:39:26.223Z,98626.84
2018-07-09T20:41:52.462Z,98627.70
2018-07-09T20:44:18.685Z,98625.03
2018-07-09T20:46:44.949Z,98625.99
2018-07-09T20:49:11.169Z,98632.47
2018-07-09T20:51:37.425Z,98633.12
2018-07-09T20:54:03.705Z,98630.45
2018-07-09T20:56:29.965Z,98633.76
2018-07-09T20:58:56.206Z,98633.96
2018-07-09T21:01:22.467Z,98626.42
2018-07-09T21:03:53.259Z,98626.78
2018-07-09T21:06:19.514Z,98622.66
2018-07-09T21:08:46.151Z,98625.17
2018-07-09T21:11:12.419Z,98629.45
2018-07-09T21:13:38.647Z,98627.64
2018-07-09T21:16:05.093Z,98623.91
2018-07-09T21:18:32.151Z,98621.17
2018-07-09T21:20:58.406Z,98620.86
2018-07-09T21:23:24.622Z,98616.48
2018-07-09T21:25:50.867Z,98623.25
2018-07-09T21:28:17.101Z,98617.64
2018-07-09T21:30:43.335Z,98620.97
2018-07-09T21:33:09.595Z,98625.92
2018-07-09T21:35:35.863Z,98627.27
2018-07-09T21:38:02.151Z,98619.05
2018-07-09T21:40:28.400Z,98623.07
2018-07-09T21:42:54.675Z,98623.45
2018-07-09T21:45:20.910Z,98623.99
2018-07-09T21:47:47.156Z,98626.42
2018-07-09T21:50:13.390Z,98624.02
2018-07-09T21:52:39.645Z,98619.16
2018-07-09T21:55:06.467Z,98623.90
2018-07-09T21:57:32.729Z,98615.39
2018-07-09T21:59:58.978Z,98616.84
2018-07-09T22:02:25.290Z,98621.20
2018-07-09T22:04:51.538Z,98624.41
2018-07-09T22:07:17.794Z,98621.20
2018-07-09T22:09:44.062Z,98618.81
2018-07-09T22:12:10.334Z,98623.41
2018-07-09T22:14:36.573Z,98621.13
2018-07-09T22:17:02.830Z,98618.02
2018-07-09T22:19:29.071Z,98614.94
2018-07-09T22:21:55.315Z,98615.69
2018-07-09T22:24:21.592Z,98611.38
2018-07-09T22:26:47.837Z,98616.98
2018-07-09T22:29:14.082Z,98613.18
2018-07-09T22:31:41.365Z,98615.13
2018-07-09T22:34:08.615Z,98602.94
2018-07-09T22:36:35.915Z,98609.07
2018-07-09T22:39:04.153Z,98602.78
2018-07-09T22:41:31.405Z,98601.61
2018-07-09T22:44:10.178Z,98601.07
2018-07-09T22:46:37.453Z,98603.26
2018-07-09T22:49:05.450Z,98596.69
2018-07-09T22:51:32.699Z,98593.30
2018-07-09T22:53:59.950Z,98598.53
2018-07-09T22:56:27.206Z,98595.96
2018-07-09T22:58:54.460Z,98596.88
2018-07-09T23:01:21.715Z,98587.36
2018-07-09T23:03:48.973Z,98589.14
2018-07-09T23:06:16.213Z,98584.63
2018-07-09T23:08:43.509Z,98580.63
2018-07-09T23:11:22.335Z,98583.30
2018-07-09T23:17:08.761Z,98587.95
2018-07-09T23:21:55.112Z,98586.05
2018-07-09T23:24:21.377Z,98585.36
2018-07-09T23:26:47.638Z,98585.92
2018-07-09T23:29:13.903Z,98582.36
2018-07-09T23:31:40.155Z,98583.87
2018-07-09T23:34:06.441Z,98593.23
2018-07-09T23:36:32.731Z,98594.71
2018-07-09T23:38:59.023Z,98598.59
2018-07-09T23:41:25.968Z,98599.88
2018-07-09T23:43:52.225Z,98605.58
2018-07-09T23:46:18.457Z,98599.36
2018-07-09T23:48:44.680Z,98601.19
2018-07-09T23:51:10.959Z,98588.84
2018-07-09T23:53:37.195Z,98590.37
2018-07-09T23:57:23.706Z,98581.55
